Terminal Aerodrome Forecast
Issued by NWS

Home | Current Version | Previous Version | Text Only | Print | Product List | Glossary On
Versions: 1 2 3 4 5 6 7 8 9 10 11 12 13 14 15 16 17 18 19 20 21 22 23 24
000
FTUS44 KBMX 182245 AAB
TAFEET
TAF AMD
KEET 182245Z 1823/1918 05006KT 5SM BR VCSH OVC020
     FM190100 13004KT P6SM BKN040
     FM190400 13003KT 5SM BR BKN050
     FM191100 15003KT 4SM BR OVC006
     FM191400 16004KT P6SM BKN015=

USA.gov is the U.S. government's official web portal to all federal, state and local government web resources and services.